• Join FlightAware (Why Join?)
  • Login
  • US Flag 
01:57AM EDT


 

Airport Tracker/Info


-or-


 

Live Flight TrackerFlight Track Log ✈ SWA208 ✈ 30-Apr-2013 ✈ KSNA - KSFO

Flight Track Log - Related Links

Times and Time Zones

All times are in EDT time to prevent confusion due to time zone crossing. See the SWA208 flight status page for this flight to view local times or setup timezone preferences in your user account.

Time Position Orientation Groundspeed Altitude Reporting Facility
EDT Latitude Longitude Course Direction KTS MPH feet Rate Location/Type
11:13PM 33.6333 -117.9000 328° Northwest 138 159 2,600  Level Southern California TRACON
11:14PM 33.5894 -117.9011 181° South 145 167 4,600 2,820 Climbing Los Angeles Center
11:15PM 33.5322 -117.9314 204° Southwest 205 236 8,900 3,840 Climbing Los Angeles Center
11:16PM 33.4528 -117.9864 210° Southwest 264 304 12,500 3,480 Climbing Los Angeles Center
11:17PM 33.3686 -118.0464 211° Southwest 335 386 16,200 3,660 Climbing Los Angeles Center
11:18PM 33.6162 -118.6289 328° Northwest  Level FlightAware Approximate
11:18PM 33.3428 -118.1544 254° West 365 420 20,100  Level Los Angeles Center
11:19PM 33.4086 -118.2494 310° West 376 433 23,300 3,000 Climbing Los Angeles Center
11:20PM 33.4811 -118.3489 311° West 390 449 26,300 2,700 Climbing Los Angeles Center
11:21PM 33.5581 -118.4547 311° West 412 474 28,900 2,400 Climbing Los Angeles Center
11:22PM 33.6389 -118.5647 311° West 430 495 31,300 2,460 Climbing Los Angeles Center
11:24PM 33.7983 -118.7831 311° West 426 490 36,600 2,160 Climbing Los Angeles Center
11:25PM 33.8908 -118.9106 311° West 422 486 38,000 660 Climbing Los Angeles Center
11:26PM 33.9675 -119.0169 311° West 421 484 38,000  Level Los Angeles Center
11:27PM 34.0436 -119.1225 311° West 419 482 38,000  Level Los Angeles Center
11:28PM 34.1194 -119.2258 312° West 414 476 38,000  Level Los Angeles Center
11:29PM 34.1950 -119.3308 311° West 413 475 38,000  Level Los Angeles Center
11:30PM 34.2686 -119.4367 310° West 413 475 38,000  Level Los Angeles Center
11:31PM 34.3442 -119.5431 311° West 416 479 38,000  Level Los Angeles Center
11:32PM 34.4347 -119.6686 311° West 414 476 38,000  Level Los Angeles Center
11:33PM 34.5097 -119.7736 311° West 413 475 38,000  Level Los Angeles Center
11:34PM 34.5958 -119.8689 318° Northwest 417 480 38,000  Level Los Angeles Center
11:35PM 34.6778 -119.9536 320° Northwest 414 476 38,000  Level Los Angeles Center
11:37PM 34.7628 -120.0483 318° Northwest 414 476 38,000  Level Los Angeles Center
11:38PM 34.8581 -120.1506 319° Northwest 414 476 38,000  Level Los Angeles Center
11:39PM 34.9417 -120.2436 318° Northwest 412 474 38,000  Level Los Angeles Center
11:40PM 35.0253 -120.3364 318° Northwest 410 472 38,000  Level Los Angeles Center
11:41PM 35.1247 -120.4472 318° Northwest 407 468 38,000  Level Los Angeles Center
11:42PM 35.2083 -120.5408 318° Northwest 409 471 38,000  Level Los Angeles Center
11:43PM 35.2928 -120.6358 317° Northwest 412 474 38,000  Level Los Angeles Center
11:44PM 35.3775 -120.7294 318° Northwest 412 474 38,000  Level Los Angeles Center
11:45PM 35.4694 -120.8131 323° Northwest 411 473 38,000  Level Los Angeles Center
11:46PM 35.5622 -120.8939 325° Northwest 409 471 38,000  Level Los Angeles Center
11:47PM 35.6542 -120.9750 324° Northwest 402 463 38,000 -60 Level Los Angeles Center
11:48PM 35.7614 -121.0731 323° Northwest 403 464 37,900  Descending Oakland Center
11:49PM 35.8511 -121.1550 323° Northwest 404 465 38,000 -1,320 Climbing Oakland Center
11:51PM 35.9459 -121.3236 305° West  Level FlightAware Approximate
11:55PM 36.4078 -121.6522 349° North 404 465 28,800  Level Oakland Center
11:56PM 36.4925 -121.7344 322° Northwest 391 450 26,200 -2,640 Descending Oakland Center
11:56PM 36.5333 -121.7667 328° Northwest 384 442 25,200 -2,520 Descending Northern Cal TRACON
11:57PM 36.6167 -121.8333 327° Northwest 366 421 22,800 -2,400 Descending Northern Cal TRACON
11:58PM 36.4801 -121.8817 338° Northwest  Level FlightAware Approximate
11:58PM 36.6833 -121.9167 315° West 356 410 20,400  Level Northern Cal TRACON
11:59PM 36.5790 -121.9041 345° North  Level FlightAware Approximate
11:59PM 36.7667 -121.9667 334° Northwest 346 398 17,900  Level Northern Cal TRACON
12:00AM 36.6765 -121.9358 349° North  Level FlightAware Approximate
12:00AM 36.8667 -122.0000 345° North 321 369 15,900  Level Northern Cal TRACON
12:01AM 36.9144 -122.0089 352° North 318 366 14,100 -2,220 Descending Oakland Center
12:02AM 36.9956 -122.0294 349° North 299 344 12,100 -1,680 Descending Oakland Center
12:03AM 37.0697 -122.0506 347° North 275 316 10,800 -1,140 Descending Oakland Center
12:04AM 37.1147 -122.1233 308° West 277 319 9,900 -480 Descending Oakland Center
12:05AM 37.1539 -122.2017 302° West 268 308 9,900 -540 Level Oakland Center
12:06AM 37.1936 -122.2808 302° West 268 308 8,900 -1,020 Descending Oakland Center
12:07AM 37.2328 -122.3617 301° West 271 312 7,900 -540 Descending Oakland Center
12:08AM 37.2861 -122.3667 356° North 242 278 7,900 -120 Level Oakland Center
12:09AM 37.3211 -122.2686 66° East 256 295 7,700 -900 Descending Oakland Center
12:10AM 37.3817 -122.2347 24° Northeast 244 281 6,200 -1,440 Descending Oakland Center
12:11AM 37.4417 -122.2131 16° North 226 260 4,900 -1,020 Descending Oakland Center
12:12AM 37.4917 -122.1956 16° North 195 224 4,200 -1,080 Descending Oakland Center
12:13AM 37.5344 -122.1942 North 184 212 2,800 -1,200 Descending Oakland Center
12:14AM 37.5608 -122.2406 306° West 173 199 1,800 -840 Descending Oakland Center
12:15AM 37.5783 -122.2833 297° West 155 178 1,200 -600 Descending Oakland Center
12:16AM 37.5961 -122.3233 299° West 141 162 600 -540 Descending Oakland Center
12:17AM 37.6144 -122.3689 297° West 136 157 200 -420 Descending Oakland Center
12:19AM 37.6167 -122.3667 322° Northwest  Level FlightAware Approximate
12:26AM 37.6191 -122.3752 322° Northwest  Level Estimated